Time;durP1;ratioP1;P1;durP2;ratioP2;P2;SDS_P1;SDS_P2;PMS_P1;PMS_P2;Temp;Humidity;BMP_temperature;BMP_pressure;BME280_temperature;BME280_humidity;BME280_pressure;Samples;Min_cycle;Max_cycle;Signal;HPM_P1;HPM_P2
2022/12/02 00:01:17;;;;;;;29.05;17.00;;;;;;;7.53;89.67;98476.00;4178210;28;20289;-85
2022/12/02 00:03:21;;;;;;;27.65;18.90;;;;;;;7.54;90.57;98466.44;4182226;28;20252;-86
2022/12/02 00:05:29;;;;;;;27.90;17.92;;;;;;;7.54;90.18;98474.25;4196193;28;20197;-85
2022/12/02 00:07:32;;;;;;;27.00;17.08;;;;;;;7.53;89.86;98467.34;4196100;28;20825;-85
2022/12/02 00:09:36;;;;;;;26.95;17.05;;;;;;;7.53;90.66;98469.94;4196726;28;20229;-85
2022/12/02 00:11:41;;;;;;;27.13;17.63;;;;;;;7.52;90.61;98463.09;4184470;28;20247;-85
2022/12/02 00:13:44;;;;;;;28.48;17.48;;;;;;;7.54;89.32;98464.69;4188019;28;20212;-85
2022/12/02 00:15:50;;;;;;;31.90;18.17;;;;;;;7.52;89.59;98463.09;4183077;28;20212;-85
2022/12/02 00:17:54;;;;;;;27.33;17.45;;;;;;;7.52;90.07;98463.09;4186267;28;20652;-85
2022/12/02 00:19:57;;;;;;;29.40;18.75;;;;;;;7.52;89.81;98461.34;4196203;28;20239;-86
2022/12/02 00:22:00;;;;;;;26.02;16.55;;;;;;;7.53;90.44;98460.44;4199505;28;20718;-85
2022/12/02 00:24:04;;;;;;;27.70;18.05;;;;;;;7.51;90.72;98457.06;4196396;28;20203;-85
2022/12/02 00:26:07;;;;;;;30.50;18.85;;;;;;;7.50;89.40;98454.53;4199807;28;20232;-85
2022/12/02 00:28:10;;;;;;;29.85;17.83;;;;;;;7.49;90.28;98452.88;4181970;28;20225;-85
2022/12/02 00:30:13;;;;;;;30.02;19.85;;;;;;;7.48;89.46;98457.22;4201892;28;20204;-85
2022/12/02 00:32:19;;;;;;;31.55;18.08;;;;;;;7.48;90.43;98452.03;4182909;28;20794;-85
2022/12/02 00:34:22;;;;;;;31.08;19.75;;;;;;;7.49;88.89;98458.06;4201432;28;20599;-85
2022/12/02 00:36:25;;;;;;;29.60;19.00;;;;;;;7.48;90.24;98451.19;4204126;28;20216;-85
2022/12/02 00:38:28;;;;;;;33.10;19.00;;;;;;;7.47;89.86;98453.84;4204272;28;20662;-85
2022/12/02 00:40:32;;;;;;;31.08;18.48;;;;;;;7.46;90.39;98445.25;4203611;28;20201;-86
2022/12/02 00:42:35;;;;;;;30.27;19.25;;;;;;;7.48;89.29;98451.19;4179668;28;20216;-85
2022/12/02 00:46:59;;;;;;;29.65;18.15;;;;;;;7.47;89.47;98440.88;4198153;28;20228;-85
2022/12/02 00:49:06;;;;;;;28.40;18.08;;;;;;;7.48;89.64;98443.41;4196283;28;20212;-85
2022/12/02 00:51:09;;;;;;;27.13;18.20;;;;;;;7.49;89.01;98432.13;4203757;28;20710;-85
2022/12/02 00:53:12;;;;;;;28.02;18.50;;;;;;;7.50;89.02;98436.38;4199263;28;20200;-85
2022/12/02 00:55:16;;;;;;;28.00;17.55;;;;;;;7.50;90.23;98434.63;4181641;28;20784;-85
2022/12/02 00:57:19;;;;;;;30.02;19.10;;;;;;;7.50;90.76;98429.44;4183058;28;20208;-85
2022/12/02 00:59:22;;;;;;;27.60;18.45;;;;;;;7.50;89.71;98426.84;4181106;28;20306;-85
2022/12/02 01:01:26;;;;;;;28.20;17.30;;;;;;;7.50;90.14;98424.25;4195286;28;20208;-85
2022/12/02 01:03:29;;;;;;;27.90;18.13;;;;;;;7.49;89.90;98416.56;4191744;28;20299;-85
2022/12/02 01:05:34;;;;;;;30.40;18.33;;;;;;;7.48;88.98;98415.69;4180866;28;20223;-85
2022/12/02 01:07:37;;;;;;;30.58;18.65;;;;;;;7.43;89.56;98416.88;4203240;28;20327;-85
2022/12/02 01:09:40;;;;;;;27.33;17.48;;;;;;;7.39;89.48;98410.13;4197295;28;20319;-85
2022/12/02 01:11:43;;;;;;;29.02;17.65;;;;;;;7.40;88.85;98417.03;4181685;28;20236;-85
2022/12/02 01:13:46;;;;;;;28.05;17.75;;;;;;;7.41;90.00;98418.69;4204220;28;20216;-85
2022/12/02 01:15:50;;;;;;;29.27;17.83;;;;;;;7.40;89.22;98413.59;4198699;28;20213;-85
2022/12/02 01:17:53;;;;;;;30.30;18.55;;;;;;;7.42;89.68;98419.53;4181387;28;21452;-85
2022/12/02 01:19:56;;;;;;;30.80;19.27;;;;;;;7.42;89.71;98414.34;4192569;28;20216;-85
2022/12/02 01:22:00;;;;;;;29.60;17.77;;;;;;;7.41;88.45;98407.47;4196357;28;20212;-85
2022/12/02 01:24:04;;;;;;;31.20;19.88;;;;;;;7.40;88.68;98403.22;4200183;28;20235;-85
2022/12/02 01:26:07;;;;;;;31.80;19.35;;;;;;;7.41;88.35;98403.13;4179572;28;20208;-84
2022/12/02 01:28:10;;;;;;;29.55;17.75;;;;;;;7.42;89.82;98402.19;4199467;28;20240;-85
2022/12/02 01:30:14;;;;;;;32.00;19.42;;;;;;;7.42;90.25;98407.41;4178169;28;20213;-85
2022/12/02 01:32:18;;;;;;;29.13;18.10;;;;;;;7.42;89.51;98404.81;4195627;28;20684;-85
2022/12/02 01:34:21;;;;;;;30.15;18.88;;;;;;;7.43;88.43;98406.50;4182461;28;20213;-86
2022/12/02 01:36:24;;;;;;;28.45;17.55;;;;;;;7.43;89.41;98403.91;4199370;28;20267;-85
2022/12/02 01:38:29;;;;;;;31.50;18.73;;;;;;;7.44;89.55;98407.31;4187143;28;20209;-85
2022/12/02 01:40:32;;;;;;;29.55;18.00;;;;;;;7.43;89.20;98406.50;4184619;28;20209;-85
2022/12/02 01:42:35;;;;;;;27.13;17.50;;;;;;;7.44;89.04;98410.75;4194307;28;20217;-85
2022/12/02 01:44:38;;;;;;;27.13;17.50;;;;;;;7.44;90.24;98409.91;4212220;28;20215;-85
2022/12/02 01:46:41;;;;;;;29.67;18.75;;;;;;;7.45;90.35;98404.66;4196919;28;20228;-85
2022/12/02 01:48:44;;;;;;;28.35;17.33;;;;;;;7.45;89.40;98412.44;4193498;28;20314;-86
2022/12/02 01:50:48;;;;;;;29.15;18.30;;;;;;;7.47;89.34;98417.53;4187296;28;20233;-85
2022/12/02 01:52:51;;;;;;;31.08;19.08;;;;;;;7.45;89.30;98404.66;4197915;28;20231;-85
2022/12/02 01:55:01;;;;;;;28.48;17.92;;;;;;;7.45;89.97;98409.00;4185189;28;20220;-85
2022/12/02 01:57:07;;;;;;;31.33;18.48;;;;;;;7.47;89.86;98408.00;4185265;28;20204;-85
2022/12/02 01:59:11;;;;;;;33.00;19.15;;;;;;;7.47;89.46;98400.19;4178915;28;20205;-86
2022/12/02 02:01:25;;;;;;;30.98;18.58;;;;;;;7.48;90.61;98404.50;4198792;28;20209;-85
2022/12/02 02:03:29;;;;;;;27.83;17.95;;;;;;;7.48;89.67;98400.13;4181140;28;20202;-85
2022/12/02 02:05:33;;;;;;;29.50;17.85;;;;;;;7.49;89.78;98401.00;4184462;28;20208;-86
2022/12/02 02:07:37;;;;;;;27.63;18.15;;;;;;;7.48;90.60;98391.50;4180651;28;20225;-85
2022/12/02 02:09:40;;;;;;;29.63;19.00;;;;;;;7.48;90.07;98400.13;4202606;28;20208;-85
2022/12/02 02:11:44;;;;;;;26.60;18.20;;;;;;;7.50;89.84;98400.03;4202054;28;20200;-85
2022/12/02 02:13:48;;;;;;;30.45;18.02;;;;;;;7.49;89.53;98396.63;4198376;28;20607;-85
2022/12/02 02:15:51;;;;;;;25.98;17.48;;;;;;;7.49;90.35;98406.19;4185998;28;20212;-85
2022/12/02 02:17:55;;;;;;;31.73;19.75;;;;;;;7.48;89.71;98396.72;4179498;28;20302;-85
2022/12/02 02:20:08;;;;;;;29.52;18.33;;;;;;;7.48;90.40;98388.91;4200733;28;20557;-85
2022/12/02 02:22:14;;;;;;;27.15;17.60;;;;;;;7.47;90.07;98387.22;4202376;28;20227;-85
2022/12/02 02:24:18;;;;;;;29.77;18.73;;;;;;;7.47;89.59;98383.81;4201308;28;20688;-85
2022/12/02 02:26:22;;;;;;;27.52;17.40;;;;;;;7.47;90.79;98387.22;4189191;28;20255;-85
2022/12/02 02:28:26;;;;;;;30.15;19.75;;;;;;;7.45;89.98;98388.25;4199926;28;20216;-86
2022/12/02 02:30:32;;;;;;;28.80;18.02;;;;;;;7.46;90.26;98388.16;4184377;28;20266;-85
2022/12/02 02:32:35;;;;;;;27.55;17.48;;;;;;;7.43;89.16;98385.72;4205756;28;20215;-85
2022/12/02 02:34:39;;;;;;;28.38;18.80;;;;;;;7.44;89.45;98384.78;4202191;28;20209;-85
2022/12/02 02:36:42;;;;;;;31.13;17.08;;;;;;;7.44;89.77;98376.19;4201772;28;20272;-84
2022/12/02 02:38:45;;;;;;;29.33;18.85;;;;;;;7.44;90.42;98377.00;4190134;28;20265;-85
2022/12/02 02:40:48;;;;;;;29.63;18.55;;;;;;;7.44;89.38;98378.78;4186515;28;20225;-85
2022/12/02 02:42:54;;;;;;;28.63;19.02;;;;;;;7.41;88.83;98374.56;4201042;28;20295;-85
2022/12/02 02:44:57;;;;;;;29.52;18.40;;;;;;;7.43;90.30;98382.28;4185609;28;20319;-85
2022/12/02 02:47:01;;;;;;;30.95;18.50;;;;;;;7.43;88.90;98375.34;4189493;28;20332;-86
2022/12/02 02:49:04;;;;;;;27.88;17.95;;;;;;;7.43;89.15;98377.09;4188897;28;20230;-85
2022/12/02 02:51:08;;;;;;;29.25;18.35;;;;;;;7.42;90.36;98372.84;4202453;28;20219;-85
2022/12/02 02:53:11;;;;;;;34.20;19.08;;;;;;;7.44;89.05;98373.59;4190597;28;20688;-85
2022/12/02 02:55:18;;;;;;;33.03;19.45;;;;;;;7.42;90.00;98371.06;4186936;28;20206;-85
2022/12/02 02:57:23;;;;;;;31.65;19.45;;;;;;;7.43;90.06;98370.16;4191008;28;20680;-85
2022/12/02 02:59:29;;;;;;;30.52;19.58;;;;;;;7.45;90.82;98368.31;4186062;28;20197;-86
2022/12/02 03:01:34;;;;;;;29.35;18.25;;;;;;;7.46;89.58;98370.00;4199510;28;20201;-85
2022/12/02 03:03:41;;;;;;;30.45;19.13;;;;;;;7.47;90.60;98371.66;4188873;28;20699;-85
2022/12/02 03:05:45;;;;;;;29.85;18.33;;;;;;;7.47;89.93;98365.66;4188385;28;20220;-85
2022/12/02 03:07:49;;;;;;;28.85;17.45;;;;;;;7.47;89.66;98360.47;4185930;28;20252;-85
2022/12/02 03:09:52;;;;;;;29.15;18.58;;;;;;;7.47;90.61;98369.06;4185489;28;20720;-85
2022/12/02 03:11:55;;;;;;;31.58;18.63;;;;;;;7.47;91.07;98365.66;4204062;28;20214;-85
2022/12/02 03:14:00;;;;;;;31.30;17.60;;;;;;;7.48;91.01;98362.16;4207992;28;20273;-85
2022/12/02 03:16:05;;;;;;;27.83;18.50;;;;;;;7.48;89.82;98355.19;4201000;28;20296;-85
2022/12/02 03:18:08;;;;;;;33.22;19.50;;;;;;;7.48;89.73;98356.97;4204480;28;20321;-85
2022/12/02 03:20:11;;;;;;;22.98;16.38;;;;;;;7.47;90.65;98358.69;4184867;28;20236;-85
2022/12/02 03:22:14;;;;;;;31.95;18.02;;;;;;;7.48;90.26;98357.78;4198705;28;20291;-85
2022/12/02 03:24:18;;;;;;;29.17;18.00;;;;;;;7.48;90.19;98351.78;4203805;28;20625;-85
2022/12/02 03:26:21;;;;;;;27.65;18.83;;;;;;;7.46;91.00;98359.63;4187091;28;20618;-85
2022/12/02 03:28:24;;;;;;;27.08;17.05;;;;;;;7.46;91.23;98353.59;4184808;28;20258;-85
2022/12/02 03:30:28;;;;;;;30.27;17.13;;;;;;;7.45;91.70;98351.94;4196464;28;20210;-86
2022/12/02 03:32:32;;;;;;;28.48;17.65;;;;;;;7.45;90.27;98354.53;4200748;28;20205;-85
2022/12/02 03:34:35;;;;;;;27.05;17.50;;;;;;;7.45;91.78;98359.72;4196925;28;20771;-85
2022/12/02 03:36:38;;;;;;;28.27;17.73;;;;;;;7.41;90.73;98348.63;4199583;28;20293;-85
2022/12/02 03:38:41;;;;;;;27.80;18.05;;;;;;;7.42;90.88;98352.09;4180978;28;20201;-85
2022/12/02 03:40:47;;;;;;;31.90;18.98;;;;;;;7.41;91.31;98351.22;4184330;28;20210;-85
2022/12/02 03:42:50;;;;;;;28.20;17.63;;;;;;;7.43;91.85;98354.59;4205484;28;20211;-85
2022/12/02 03:44:53;;;;;;;28.92;18.58;;;;;;;7.43;91.78;98351.16;4198658;28;20705;-85
2022/12/02 03:46:57;;;;;;;31.50;18.55;;;;;;;7.42;90.31;98355.50;4182541;28;20229;-85
2022/12/02 03:49:01;;;;;;;27.75;18.77;;;;;;;7.43;91.25;98353.75;4197227;28;20310;-85
2022/12/02 03:51:04;;;;;;;28.38;17.85;;;;;;;7.44;92.16;98352.84;4182760;28;20381;-86
2022/12/02 03:53:08;;;;;;;30.90;19.20;;;;;;;7.44;91.81;98342.47;4197090;28;20250;-85
2022/12/02 03:55:11;;;;;;;26.45;17.65;;;;;;;7.44;90.96;98338.09;4196682;28;20529;-85
2022/12/02 03:57:14;;;;;;;29.65;18.25;;;;;;;7.44;90.41;98345.06;4197051;28;20255;-85
2022/12/02 03:59:20;;;;;;;29.27;18.33;;;;;;;7.43;90.98;98340.78;4187037;28;20258;-85
2022/12/02 04:01:23;;;;;;;34.78;18.77;;;;;;;7.37;91.51;98339.34;4181171;28;20248;-85
2022/12/02 04:03:27;;;;;;;28.55;16.85;;;;;;;7.37;90.22;98341.13;4202730;28;20679;-85
2022/12/02 04:05:31;;;;;;;29.73;18.50;;;;;;;7.37;91.57;98339.34;4182967;28;20219;-85
2022/12/02 04:07:34;;;;;;;31.77;19.23;;;;;;;7.37;91.99;98336.75;4196394;28;20202;-85
2022/12/02 04:09:37;;;;;;;26.65;17.58;;;;;;;7.36;91.15;98329.06;4185290;28;20244;-85
2022/12/02 04:11:40;;;;;;;32.88;19.38;;;;;;;7.36;92.10;98326.47;4202410;28;20684;-85
2022/12/02 04:13:43;;;;;;;30.50;19.63;;;;;;;7.37;91.48;98322.97;4197900;28;20208;-85
2022/12/02 04:15:46;;;;;;;32.13;19.70;;;;;;;7.38;92.21;98320.28;4182480;28;20229;-85
2022/12/02 04:17:49;;;;;;;28.75;18.05;;;;;;;7.38;91.38;98325.47;4203077;28;20777;-85
2022/12/02 04:19:54;;;;;;;30.45;18.55;;;;;;;7.39;91.36;98327.13;4200008;28;20707;-84
2022/12/02 04:21:57;;;;;;;32.63;19.35;;;;;;;7.39;91.90;98327.13;4201703;28;20204;-85
2022/12/02 04:24:00;;;;;;;30.83;18.58;;;;;;;7.39;92.99;98316.75;4201356;28;20232;-85
2022/12/02 04:26:03;;;;;;;25.05;16.67;;;;;;;7.38;91.57;98319.44;4200063;28;20745;-85
2022/12/02 04:28:06;;;;;;;28.10;18.17;;;;;;;7.38;92.64;98319.44;4187268;28;20737;-85
2022/12/02 04:30:10;;;;;;;33.35;18.10;;;;;;;7.38;93.16;98316.84;4198581;28;20307;-85
2022/12/02 04:32:13;;;;;;;29.40;18.42;;;;;;;7.36;92.42;98314.31;4203444;28;20668;-85
2022/12/02 04:34:16;;;;;;;31.17;19.92;;;;;;;7.35;92.06;98317.84;4197550;28;20202;-85
2022/12/02 04:36:20;;;;;;;27.27;17.08;;;;;;;7.34;91.74;98318.75;4187667;28;20755;-84
2022/12/02 04:38:23;;;;;;;31.77;18.33;;;;;;;7.35;91.81;98315.25;4200640;28;20664;-85
2022/12/02 04:40:26;;;;;;;31.17;17.98;;;;;;;7.36;92.02;98311.72;4200353;28;20691;-85
2022/12/02 04:42:29;;;;;;;27.90;17.20;;;;;;;7.38;92.16;98303.84;4196915;28;20220;-85
2022/12/02 04:44:32;;;;;;;30.00;18.42;;;;;;;7.40;91.79;98313.25;4181534;28;20219;-86
2022/12/02 04:46:35;;;;;;;31.50;19.80;;;;;;;7.42;92.72;98307.97;4187476;28;20211;-85
2022/12/02 04:48:38;;;;;;;27.48;17.85;;;;;;;7.43;91.58;98307.91;4185012;28;20371;-86
2022/12/02 04:50:41;;;;;;;30.85;17.40;;;;;;;7.44;91.63;98314.75;4197978;28;20794;-85
2022/12/02 04:52:45;;;;;;;28.20;17.33;;;;;;;7.44;91.40;98319.94;4176931;28;20221;-85
2022/12/02 04:54:48;;;;;;;25.88;17.25;;;;;;;7.43;92.72;98318.28;4183366;28;20711;-85
2022/12/02 04:56:52;;;;;;;25.05;16.02;;;;;;;7.46;92.70;98315.53;4184388;28;20201;-85
2022/12/02 04:58:55;;;;;;;28.58;16.63;;;;;;;7.47;91.18;98316.34;4182815;28;20206;-85
2022/12/02 05:00:59;;;;;;;21.80;14.50;;;;;;;7.46;91.13;98310.34;4180615;28;20514;-86
2022/12/02 05:03:01;;;;;;;23.38;15.13;;;;;;;7.47;91.28;98308.56;4194867;28;20308;-85
2022/12/02 05:05:05;;;;;;;28.08;15.73;;;;;;;7.46;91.52;98310.34;4186802;28;20576;-85
2022/12/02 05:07:08;;;;;;;26.45;16.65;;;;;;;7.46;91.00;98305.16;4181563;28;20299;-85
2022/12/02 05:09:13;;;;;;;22.92;15.02;;;;;;;7.47;91.31;98306.81;4194669;28;20628;-85
2022/12/02 05:11:16;;;;;;;23.55;15.35;;;;;;;7.48;90.83;98309.31;4193317;28;20206;-86
2022/12/02 05:13:19;;;;;;;26.23;16.65;;;;;;;7.48;91.03;98310.25;4188010;28;20269;-85
2022/12/02 05:15:22;;;;;;;29.10;16.33;;;;;;;7.46;92.24;98312.06;4197534;28;20257;-85
2022/12/02 05:17:25;;;;;;;26.98;16.85;;;;;;;7.46;92.52;98312.94;4182596;28;20319;-85
2022/12/02 05:19:28;;;;;;;31.77;18.83;;;;;;;7.45;91.09;98320.78;4200832;28;20211;-86
2022/12/02 05:21:31;;;;;;;31.38;18.98;;;;;;;7.46;92.37;98319.84;4194720;28;20273;-85
2022/12/02 05:23:34;;;;;;;33.70;18.50;;;;;;;7.47;91.36;98308.56;4195570;28;20264;-85
2022/12/02 05:25:38;;;;;;;32.20;18.73;;;;;;;7.48;92.68;98310.25;4183751;28;20255;-85
2022/12/02 05:27:41;;;;;;;39.85;18.80;;;;;;;7.48;91.84;98296.34;4199256;28;20713;-84
2022/12/02 05:29:44;;;;;;;33.00;18.25;;;;;;;7.48;91.21;98306.72;4183444;28;20222;-85
2022/12/02 05:31:47;;;;;;;30.15;19.23;;;;;;;7.49;92.70;98298.03;4194155;28;20855;-85
2022/12/02 05:33:50;;;;;;;32.53;19.42;;;;;;;7.50;91.31;98301.44;4185167;28;20209;-85
2022/12/02 05:35:53;;;;;;;35.90;20.20;;;;;;;7.51;92.58;98301.38;4186033;28;20692;-85
2022/12/02 05:37:56;;;;;;;31.88;20.15;;;;;;;7.50;91.47;98302.31;4200771;28;20358;-84
2022/12/02 05:40:07;;;;;;;28.23;17.48;;;;;;;7.51;93.00;98300.53;4195912;28;20197;-84
2022/12/02 05:42:14;;;;;;;34.22;19.50;;;;;;;7.51;92.48;98306.56;4199618;28;20673;-85
2022/12/02 05:44:20;;;;;;;31.15;18.30;;;;;;;7.49;92.85;98292.84;4179548;28;20221;-85
2022/12/02 05:46:23;;;;;;;27.35;17.67;;;;;;;7.51;92.35;98297.94;4200812;28;20230;-84
2022/12/02 05:48:27;;;;;;;30.75;18.52;;;;;;;7.50;93.03;98297.13;4184125;28;20206;-85
2022/12/02 05:50:32;;;;;;;31.17;18.63;;;;;;;7.48;92.22;98304.13;4197113;28;20234;-84
2022/12/02 05:52:35;;;;;;;30.52;18.10;;;;;;;7.48;92.27;98306.72;4179146;28;20214;-84
2022/12/02 05:54:38;;;;;;;28.40;18.73;;;;;;;7.48;92.70;98305.91;4198405;28;20789;-84
2022/12/02 05:56:41;;;;;;;29.33;18.98;;;;;;;7.47;93.84;98305.97;4194728;28;20212;-84
2022/12/02 05:58:45;;;;;;;31.67;18.80;;;;;;;7.47;92.72;98298.19;4180542;28;20250;-84
2022/12/02 06:00:54;;;;;;;30.77;18.45;;;;;;;7.44;94.38;98304.38;4176892;28;20202;-84
2022/12/02 06:03:00;;;;;;;30.90;17.00;;;;;;;7.44;93.56;98298.34;4194473;28;20751;-84
2022/12/02 06:05:09;;;;;;;34.78;17.70;;;;;;;7.45;94.13;98307.81;4184200;28;20316;-84
2022/12/02 06:07:13;;;;;;;31.75;17.70;;;;;;;7.46;94.61;98302.56;4199688;28;20201;-84
2022/12/02 06:09:18;;;;;;;29.05;17.75;;;;;;;7.45;93.27;98303.47;4200369;28;20925;-84
2022/12/02 06:11:27;;;;;;;33.55;17.95;;;;;;;7.45;94.38;98300.03;4184188;28;20271;-85
2022/12/02 06:13:36;;;;;;;29.92;17.63;;;;;;;7.44;93.46;98299.19;4194075;28;20279;-84
2022/12/02 06:15:40;;;;;;;29.65;17.45;;;;;;;7.44;94.13;98300.94;4184610;28;20291;-84
2022/12/02 06:17:43;;;;;;;33.13;18.25;;;;;;;7.44;94.88;98304.38;4183637;28;20209;-84
2022/12/02 06:19:50;;;;;;;32.38;17.42;;;;;;;7.44;94.83;98304.38;4192883;28;20220;-85
2022/12/02 06:21:53;;;;;;;29.27;19.13;;;;;;;7.43;93.64;98305.31;4196954;28;20693;-85
2022/12/02 06:23:58;;;;;;;32.72;18.40;;;;;;;7.43;93.09;98302.72;4194481;28;20217;-85
2022/12/02 06:26:01;;;;;;;30.38;17.65;;;;;;;7.42;94.56;98305.38;4193147;28;20217;-83
2022/12/02 06:28:11;;;;;;;29.40;16.95;;;;;;;7.41;93.30;98298.50;4183616;28;20216;-83
2022/12/02 06:30:15;;;;;;;30.63;18.35;;;;;;;7.41;94.66;98304.53;4199564;28;20298;-84
2022/12/02 06:32:22;;;;;;;31.30;17.55;;;;;;;7.42;94.33;98305.38;4180633;28;20197;-84
2022/12/02 06:34:35;;;;;;;29.00;17.52;;;;;;;7.44;93.90;98298.34;4197655;28;20212;-84
2022/12/02 06:36:38;;;;;;;29.35;17.75;;;;;;;7.42;94.55;98297.59;4195767;28;20216;-84
2022/12/02 06:38:47;;;;;;;28.08;17.35;;;;;;;7.41;94.50;98293.31;4179385;28;20213;-84
2022/12/02 06:40:50;;;;;;;30.40;17.90;;;;;;;7.40;94.10;98294.25;4195455;28;20196;-85
2022/12/02 06:42:53;;;;;;;28.70;17.35;;;;;;;7.40;94.18;98292.50;4178949;28;20210;-86
2022/12/02 06:45:04;;;;;;;26.40;16.77;;;;;;;7.42;94.95;98287.22;4185078;28;20219;-85
2022/12/02 06:47:40;;;;;;;24.48;16.45;;;;;;;7.42;94.41;98282.03;4201017;28;20208;-87
2022/12/02 06:49:45;;;;;;;25.42;15.20;;;;;;;7.41;94.35;98290.72;4191651;28;20254;-87
2022/12/02 06:51:49;;;;;;;27.05;15.65;;;;;;;7.41;94.63;98295.91;4194261;28;20293;-85
2022/12/02 06:53:52;;;;;;;27.77;16.52;;;;;;;7.42;94.78;98290.66;4194511;28;20828;-86
2022/12/02 06:55:59;;;;;;;23.05;13.95;;;;;;;7.42;94.30;98295.00;4202383;28;20646;-86
2022/12/02 06:58:18;;;;;;;23.27;13.55;;;;;;;7.43;93.29;98294.06;4186420;28;20215;-87
2022/12/02 07:00:21;;;;;;;20.23;12.45;;;;;;;7.40;91.70;98291.66;4186937;28;20243;-86
2022/12/02 07:02:28;;;;;;;24.13;15.95;;;;;;;7.36;91.17;98293.56;4183187;28;20776;-85
2022/12/02 07:04:35;;;;;;;28.67;19.48;;;;;;;7.34;91.45;98292.81;4218837;28;20279;-85
2022/12/02 07:06:40;;;;;;;22.02;17.20;;;;;;;7.32;90.23;98286.88;4200906;28;20251;-83
2022/12/02 07:08:43;;;;;;;23.40;15.75;;;;;;;7.32;91.49;98289.47;4197039;28;20215;-83
2022/12/02 07:10:46;;;;;;;19.65;15.55;;;;;;;7.33;90.30;98295.50;4184780;28;20705;-83
2022/12/02 07:12:49;;;;;;;11.75;9.18;;;;;;;7.28;90.62;98293.13;4204653;28;20219;-83
2022/12/02 07:14:54;;;;;;;12.07;9.15;;;;;;;7.17;90.94;98290.28;4183707;28;20213;-83
2022/12/02 07:16:59;;;;;;;15.25;10.77;;;;;;;7.14;90.33;98293.03;4192255;28;20671;-83
2022/12/02 07:19:03;;;;;;;11.77;9.02;;;;;;;7.17;91.40;98287.69;4198504;28;20754;-83
2022/12/02 07:21:12;;;;;;;12.63;9.05;;;;;;;7.11;89.52;98290.59;4184055;28;20210;-83
2022/12/02 07:23:20;;;;;;;16.63;13.40;;;;;;;7.08;90.91;98287.28;4201810;28;20207;-83
2022/12/02 07:25:36;;;;;;;22.08;18.55;;;;;;;7.05;90.59;98283.13;4192377;28;20213;-83
2022/12/02 07:27:40;;;;;;;17.48;15.10;;;;;;;7.08;90.23;98293.34;4197105;28;20201;-83
2022/12/02 07:29:43;;;;;;;14.18;9.45;;;;;;;7.00;91.54;98296.41;4187489;28;20249;-83
2022/12/02 07:31:47;;;;;;;18.77;10.88;;;;;;;6.98;90.72;98288.69;4201241;28;20568;-85
2022/12/02 07:33:50;;;;;;;19.88;10.98;;;;;;;6.95;90.34;98295.81;4185064;28;20244;-84
2022/12/02 07:35:54;;;;;;;15.90;10.35;;;;;;;6.92;91.62;98285.59;4186129;28;20295;-85
2022/12/02 07:37:57;;;;;;;15.63;10.57;;;;;;;6.88;90.81;98291.84;4184788;28;20513;-84
2022/12/02 07:40:04;;;;;;;16.02;10.20;;;;;;;6.89;90.61;98288.34;4187791;28;20625;-85
2022/12/02 07:42:07;;;;;;;16.95;10.90;;;;;;;6.91;90.72;98289.09;4195286;28;20202;-84
2022/12/02 07:44:10;;;;;;;14.93;10.50;;;;;;;6.93;92.03;98284.66;4192939;28;20212;-84
2022/12/02 07:46:15;;;;;;;17.05;10.95;;;;;;;6.92;90.98;98286.41;4199318;28;20602;-83
2022/12/02 07:48:18;;;;;;;16.98;10.98;;;;;;;6.92;92.32;98288.19;4200714;28;20212;-83
2022/12/02 07:50:21;;;;;;;14.80;10.77;;;;;;;6.91;92.15;98291.69;4200803;28;20211;-83
2022/12/02 07:52:24;;;;;;;14.40;9.82;;;;;;;6.88;91.55;98287.47;4200031;28;20252;-83
2022/12/02 07:54:27;;;;;;;14.30;10.02;;;;;;;6.86;92.28;98288.50;4185806;28;20220;-82
2022/12/02 07:56:32;;;;;;;16.92;11.23;;;;;;;6.89;91.93;98286.56;4201617;28;20207;-85
2022/12/02 07:58:34;;;;;;;16.02;12.27;;;;;;;6.94;91.67;98287.16;4201304;28;20469;-84
2022/12/02 08:00:57;;;;;;;18.38;11.77;;;;;;;6.97;92.98;98281.81;4188972;28;20206;-84
2022/12/02 08:03:01;;;;;;;16.42;11.70;;;;;;;6.99;92.62;98284.34;4180375;28;20216;-84
2022/12/02 08:05:05;;;;;;;17.10;11.02;;;;;;;7.00;93.22;98276.47;4182277;28;20244;-84
2022/12/02 08:07:08;;;;;;;16.63;10.70;;;;;;;7.03;92.38;98284.09;4184231;28;20200;-84
2022/12/02 08:09:11;;;;;;;20.88;12.93;;;;;;;7.05;93.59;98287.44;4198823;28;20266;-83
2022/12/02 08:11:14;;;;;;;18.58;11.55;;;;;;;7.09;93.87;98291.56;4192499;28;20245;-84
2022/12/02 08:13:19;;;;;;;16.50;12.02;;;;;;;7.10;92.06;98293.25;4194210;28;20268;-84
2022/12/02 08:15:22;;;;;;;15.23;10.63;;;;;;;7.07;92.48;98285.63;4196854;28;20304;-84
2022/12/02 08:17:25;;;;;;;17.90;10.50;;;;;;;7.05;91.97;98290.03;4181064;28;20257;-84
2022/12/02 08:19:28;;;;;;;16.45;10.15;;;;;;;7.06;93.58;98294.31;4196904;28;20236;-84
2022/12/02 08:21:31;;;;;;;17.40;10.80;;;;;;;7.05;93.49;98298.69;4198153;28;20216;-84
2022/12/02 08:23:34;;;;;;;17.00;11.00;;;;;;;7.10;93.88;98295.84;4200834;28;20202;-83
2022/12/02 08:25:37;;;;;;;15.40;10.77;;;;;;;7.13;94.04;98299.13;4177297;28;20202;-84
2022/12/02 08:27:40;;;;;;;17.13;9.77;;;;;;;7.13;93.41;98293.94;4177493;28;20202;-83
2022/12/02 08:29:49;;;;;;;13.02;9.32;;;;;;;7.14;93.83;98292.16;4188865;28;20218;-83
2022/12/02 08:31:52;;;;;;;14.90;9.95;;;;;;;7.15;93.98;98296.44;4191151;28;20733;-84
2022/12/02 08:33:56;;;;;;;13.65;8.90;;;;;;;7.19;93.10;98300.56;4182266;28;20263;-83
2022/12/02 08:36:03;;;;;;;15.60;9.45;;;;;;;7.20;94.33;98299.63;4201269;28;20614;-83
2022/12/02 08:38:07;;;;;;;15.20;10.30;;;;;;;7.21;93.89;98296.13;4178414;28;20309;-83
2022/12/02 08:40:10;;;;;;;13.30;8.73;;;;;;;7.22;92.53;98301.22;4199785;28;20197;-84
2022/12/02 08:42:13;;;;;;;15.93;10.57;;;;;;;7.20;93.46;98300.50;4186169;28;20196;-83
2022/12/02 08:44:16;;;;;;;11.77;8.35;;;;;;;7.19;93.68;98285.84;4197322;28;20209;-83
2022/12/02 08:46:21;;;;;;;16.95;11.10;;;;;;;7.19;92.88;98285.84;4200510;28;20661;-83
2022/12/02 08:48:24;;;;;;;14.55;9.85;;;;;;;7.19;93.38;98287.59;4197981;28;20573;-84
2022/12/02 08:50:28;;;;;;;11.80;8.55;;;;;;;7.22;93.40;98288.25;4197004;28;20685;-83
2022/12/02 08:52:31;;;;;;;10.18;8.18;;;;;;;7.24;93.32;98289.00;4179905;28;20361;-83
2022/12/02 08:54:34;;;;;;;12.70;8.18;;;;;;;7.24;92.24;98283.81;4195797;28;20673;-84
2022/12/02 08:56:37;;;;;;;8.77;6.32;;;;;;;7.24;92.16;98289.00;4194546;28;20213;-84
2022/12/02 08:58:40;;;;;;;9.20;7.18;;;;;;;7.22;92.21;98283.06;4180776;28;20495;-84
2022/12/02 09:00:43;;;;;;;9.88;6.82;;;;;;;7.23;91.69;98291.69;4194808;28;20220;-84
2022/12/02 09:02:50;;;;;;;7.97;5.72;;;;;;;7.23;90.62;98286.50;4184200;28;20731;-84
2022/12/02 09:04:53;;;;;;;9.38;5.82;;;;;;;7.23;91.69;98284.78;4199380;28;20617;-84
2022/12/02 09:06:56;;;;;;;8.65;6.35;;;;;;;7.26;91.65;98281.16;4193129;28;20208;-84
2022/12/02 09:08:59;;;;;;;8.60;6.30;;;;;;;7.26;91.39;98275.97;4176818;28;20279;-84
2022/12/02 09:11:02;;;;;;;11.70;7.75;;;;;;;7.28;92.30;98277.56;4183107;28;20212;-84
2022/12/02 09:13:06;;;;;;;11.43;8.52;;;;;;;7.29;91.53;98278.41;4206683;28;20322;-84
2022/12/02 09:15:09;;;;;;;10.80;7.93;;;;;;;7.28;90.92;98277.56;4191577;28;20283;-84
2022/12/02 09:17:12;;;;;;;10.05;7.68;;;;;;;7.29;91.16;98278.41;4199816;28;20759;-84
2022/12/02 09:19:17;;;;;;;8.45;6.55;;;;;;;7.32;91.60;98279.09;4199674;28;20255;-84
2022/12/02 09:21:20;;;;;;;9.45;6.32;;;;;;;7.35;91.88;98273.75;4181883;28;20235;-84
2022/12/02 09:23:23;;;;;;;6.72;4.68;;;;;;;7.37;90.71;98282.28;4195931;28;20752;-84
2022/12/02 09:25:26;;;;;;;7.03;5.30;;;;;;;7.37;90.66;98273.66;4196887;28;20288;-84
2022/12/02 09:27:30;;;;;;;10.10;7.93;;;;;;;7.31;89.93;98281.78;4201787;28;20202;-84
2022/12/02 09:29:33;;;;;;;48.97;31.70;;;;;;;7.29;90.17;98270.63;4191792;28;20306;-85
2022/12/02 09:31:36;;;;;;;6.38;4.97;;;;;;;7.23;90.88;98277.00;4180865;28;20208;-84
2022/12/02 09:33:40;;;;;;;7.35;5.25;;;;;;;7.10;90.99;98268.16;4184413;28;20317;-84
2022/12/02 09:35:44;;;;;;;28.30;20.30;;;;;;;7.05;90.92;98266.69;4195498;28;20296;-84
2022/12/02 09:37:47;;;;;;;9.07;6.15;;;;;;;7.07;91.12;98267.47;4196663;28;20197;-83
2022/12/02 09:39:51;;;;;;;8.93;6.28;;;;;;;7.11;91.01;98263.78;4178195;28;20205;-84
2022/12/02 09:41:54;;;;;;;7.97;5.97;;;;;;;7.13;90.98;98272.34;4195479;28;20247;-84